Time;durP1;ratioP1;P1;durP2;ratioP2;P2;SDS_P1;SDS_P2;PMS_P1;PMS_P2;Temp;Humidity;BMP_temperature;BMP_pressure;BME280_temperature;BME280_humidity;BME280_pressure;Samples;Min_cycle;Max_cycle;Signal;HPM_P1;HPM_P2
2023/06/15 00:02:23;;;;;;;10.52;7.38;;;;;;;;;;4996093;28;20108;-75
2023/06/15 00:04:51;;;;;;;9.68;7.18;;;;;;;;;;4996114;28;20026;-73
2023/06/15 00:07:16;;;;;;;8.90;6.75;;;;;;;;;;4979799;28;20136;-77
2023/06/15 00:09:42;;;;;;;8.88;7.50;;;;;;;;;;5012161;28;20069;-75
2023/06/15 00:12:09;;;;;;;13.25;7.57;;;;;;;;;;4995137;28;20025;-74
2023/06/15 00:14:36;;;;;;;12.57;7.07;;;;;;;;;;4994900;28;20028;-75
2023/06/15 00:17:03;;;;;;;8.60;7.03;;;;;;;;;;4995414;28;20082;-74
2023/06/15 00:19:28;;;;;;;14.18;7.00;;;;;;;;;;4995530;28;20034;-75
2023/06/15 00:21:56;;;;;;;9.57;6.90;;;;;;;;;;4995723;28;20093;-75
2023/06/15 00:24:22;;;;;;;7.55;6.68;;;;;;;;;;4995695;28;20025;-75
2023/06/15 00:26:48;;;;;;;12.00;7.47;;;;;;;;;;4996161;28;20455;-74
2023/06/15 00:29:14;;;;;;;9.10;7.05;;;;;;;;;;5013393;28;20083;-74
2023/06/15 00:31:39;;;;;;;15.98;7.30;;;;;;;;;;4996780;28;20026;-75
2023/06/15 00:34:05;;;;;;;9.93;7.68;;;;;;;;;;5014327;28;20181;-75
2023/06/15 00:36:31;;;;;;;12.52;7.75;;;;;;;;;;4995900;28;20021;-76
2023/06/15 00:38:56;;;;;;;13.35;7.93;;;;;;;;;;4995445;28;20033;-74
2023/06/15 00:41:22;;;;;;;12.20;8.27;;;;;;;;;;5012525;28;20061;-75
2023/06/15 00:43:51;;;;;;;11.98;8.30;;;;;;;;;;4995267;28;20022;-76
2023/06/15 00:46:17;;;;;;;12.15;8.07;;;;;;;;;;5012852;28;20033;-74
2023/06/15 00:48:46;;;;;;;12.52;7.95;;;;;;;;;;4995416;28;20026;-76
2023/06/15 00:51:12;;;;;;;13.30;7.72;;;;;;;;;;4995366;28;20529;-74
2023/06/15 00:53:38;;;;;;;13.25;7.45;;;;;;;;;;4995339;28;20111;-75
2023/06/15 00:56:05;;;;;;;8.77;7.47;;;;;;;;;;4995371;28;20026;-75
2023/06/15 00:58:31;;;;;;;10.65;7.70;;;;;;;;;;4995521;28;20482;-74
2023/06/15 01:00:57;;;;;;;13.07;8.07;;;;;;;;;;4995741;28;20149;-74
2023/06/15 01:03:22;;;;;;;10.77;7.95;;;;;;;;;;4995682;28;20538;-76
2023/06/15 01:05:52;;;;;;;17.20;7.40;;;;;;;;;;4996079;28;20120;-75
2023/06/15 01:08:20;;;;;;;9.57;7.35;;;;;;;;;;4996283;28;20018;-74
2023/06/15 01:10:48;;;;;;;11.23;8.13;;;;;;;;;;4995922;28;20030;-75
2023/06/15 01:13:19;;;;;;;13.05;7.22;;;;;;;;;;4978863;28;20068;-75
2023/06/15 01:15:49;;;;;;;10.18;7.60;;;;;;;;;;4994449;28;20048;-75
2023/06/15 01:18:20;;;;;;;10.17;7.83;;;;;;;;;;4978228;28;20458;-75
2023/06/15 01:20:48;;;;;;;10.30;7.38;;;;;;;;;;5012456;28;20060;-75
2023/06/15 01:23:21;;;;;;;11.35;7.93;;;;;;;;;;5011919;28;20042;-75
2023/06/15 01:25:48;;;;;;;11.25;8.40;;;;;;;;;;4994773;28;20030;-75
2023/06/15 01:28:22;;;;;;;10.57;7.78;;;;;;;;;;5013194;28;20026;-75
2023/06/15 01:30:56;;;;;;;14.35;7.80;;;;;;;;;;4996640;28;20347;-75
2023/06/15 01:33:22;;;;;;;12.25;8.00;;;;;;;;;;4995842;28;20068;-75
2023/06/15 01:35:48;;;;;;;12.50;7.85;;;;;;;;;;4995932;28;20033;-75
2023/06/15 01:38:17;;;;;;;9.82;7.95;;;;;;;;;;4995719;28;20026;-75
2023/06/15 01:40:47;;;;;;;11.90;7.55;;;;;;;;;;4995946;28;20121;-77
2023/06/15 01:43:16;;;;;;;10.13;7.85;;;;;;;;;;4995255;28;20045;-74
2023/06/15 01:45:43;;;;;;;10.02;8.15;;;;;;;;;;4988261;28;20034;-75
2023/06/15 01:48:10;;;;;;;11.68;7.45;;;;;;;;;;4975240;28;20030;-74
2023/06/15 01:50:37;;;;;;;12.07;7.70;;;;;;;;;;4977809;28;20030;-75
2023/06/15 01:53:03;;;;;;;11.43;8.23;;;;;;;;;;4997128;28;20470;-75
2023/06/15 01:55:29;;;;;;;9.05;7.80;;;;;;;;;;4978644;28;20038;-75
2023/06/15 01:57:56;;;;;;;10.25;7.82;;;;;;;;;;4997249;28;20062;-75
2023/06/15 02:00:23;;;;;;;11.05;9.13;;;;;;;;;;4979444;28;20034;-74
2023/06/15 02:02:49;;;;;;;9.43;7.53;;;;;;;;;;4997762;28;20045;-75
2023/06/15 02:05:15;;;;;;;9.82;7.68;;;;;;;;;;4996512;28;20042;-75
2023/06/15 02:07:44;;;;;;;13.40;8.18;;;;;;;;;;4980027;28;20046;-76
2023/06/15 02:10:10;;;;;;;10.95;8.07;;;;;;;;;;4980568;28;20030;-75
2023/06/15 02:12:36;;;;;;;11.65;8.63;;;;;;;;;;4998816;28;20474;-74
2023/06/15 02:15:03;;;;;;;12.63;9.00;;;;;;;;;;5002717;28;20030;-75
2023/06/15 02:17:38;;;;;;;16.30;8.48;;;;;;;;;;4991167;28;20054;-75
2023/06/15 02:20:09;;;;;;;11.48;8.00;;;;;;;;;;5011539;28;20030;-75
2023/06/15 02:22:34;;;;;;;11.07;7.80;;;;;;;;;;5007389;28;20065;-76
2023/06/15 02:25:00;;;;;;;10.27;7.97;;;;;;;;;;4980131;28;20372;-76
2023/06/15 02:27:28;;;;;;;11.02;8.23;;;;;;;;;;4996501;28;20112;-74
2023/06/15 02:29:54;;;;;;;12.73;7.45;;;;;;;;;;4978899;28;20030;-74
2023/06/15 02:32:35;;;;;;;13.00;8.88;;;;;;;;;;4978455;28;20033;-75
2023/06/15 02:35:05;;;;;;;11.40;7.30;;;;;;;;;;4979090;28;20037;-76
2023/06/15 02:37:32;;;;;;;14.05;8.45;;;;;;;;;;4977605;28;20038;-75
2023/06/15 02:39:57;;;;;;;10.65;7.47;;;;;;;;;;4978491;28;20029;-75
2023/06/15 02:42:23;;;;;;;12.07;8.35;;;;;;;;;;4995268;28;20038;-75
2023/06/15 02:44:49;;;;;;;14.45;8.63;;;;;;;;;;4979278;28;20034;-74
2023/06/15 02:47:15;;;;;;;12.18;8.52;;;;;;;;;;4977869;28;20372;-76
2023/06/15 02:49:40;;;;;;;12.52;8.75;;;;;;;;;;4978008;28;20034;-74
2023/06/15 02:52:07;;;;;;;13.80;8.73;;;;;;;;;;4977217;28;20041;-74
2023/06/15 02:54:32;;;;;;;17.55;9.57;;;;;;;;;;4977610;28;20027;-75
2023/06/15 02:56:58;;;;;;;9.98;7.85;;;;;;;;;;4978288;28;20093;-75
2023/06/15 02:59:25;;;;;;;13.05;8.60;;;;;;;;;;4978595;28;20527;-74
2023/06/15 03:01:55;;;;;;;11.82;8.65;;;;;;;;;;4978163;28;20030;-75
2023/06/15 03:04:23;;;;;;;11.20;8.45;;;;;;;;;;4977074;28;20118;-75
2023/06/15 03:06:49;;;;;;;12.45;9.27;;;;;;;;;;4994674;28;20073;-74
2023/06/15 03:09:22;;;;;;;13.23;8.98;;;;;;;;;;4979056;28;20036;-76
2023/06/15 03:11:50;;;;;;;14.02;9.18;;;;;;;;;;4995670;28;20058;-75
2023/06/15 03:14:18;;;;;;;15.90;9.18;;;;;;;;;;4995096;28;20053;-74
2023/06/15 03:16:48;;;;;;;13.98;8.45;;;;;;;;;;4977427;28;20037;-75
2023/06/15 03:19:17;;;;;;;17.13;10.15;;;;;;;;;;4977728;28;20092;-75
2023/06/15 03:21:47;;;;;;;13.23;9.02;;;;;;;;;;4977090;28;20045;-76
2023/06/15 03:24:16;;;;;;;16.23;9.32;;;;;;;;;;4976777;28;20096;-75
2023/06/15 03:26:47;;;;;;;13.13;9.73;;;;;;;;;;4976895;28;20125;-76
2023/06/15 03:29:13;;;;;;;15.75;9.43;;;;;;;;;;4977517;28;20030;-74
2023/06/15 03:31:44;;;;;;;14.90;8.30;;;;;;;;;;4994556;28;20026;-76
2023/06/15 03:34:10;;;;;;;16.38;9.55;;;;;;;;;;4994696;28;20023;-74
2023/06/15 03:36:36;;;;;;;12.82;8.65;;;;;;;;;;4994959;28;20026;-75
2023/06/15 03:39:03;;;;;;;12.07;9.15;;;;;;;;;;4960981;28;20096;-76
2023/06/15 03:41:30;;;;;;;13.40;8.88;;;;;;;;;;4994350;28;20042;-76
2023/06/15 03:43:56;;;;;;;12.73;8.52;;;;;;;;;;4977024;28;20510;-74
2023/06/15 03:46:22;;;;;;;16.75;8.93;;;;;;;;;;4977015;28;20067;-76
2023/06/15 03:48:49;;;;;;;13.57;9.10;;;;;;;;;;4976858;28;20052;-75
2023/06/15 03:51:14;;;;;;;11.68;8.85;;;;;;;;;;4977242;28;20550;-74
2023/06/15 03:53:52;;;;;;;12.85;9.57;;;;;;;;;;4977049;28;20126;-75
2023/06/15 03:56:17;;;;;;;16.23;9.60;;;;;;;;;;4977428;28;20030;-75
2023/06/15 03:58:43;;;;;;;11.85;8.70;;;;;;;;;;4976606;28;20125;-75
2023/06/15 04:01:12;;;;;;;13.57;9.45;;;;;;;;;;4994128;28;20057;-75
2023/06/15 04:03:39;;;;;;;10.77;8.90;;;;;;;;;;4976206;28;20030;-76
2023/06/15 04:06:06;;;;;;;14.38;9.65;;;;;;;;;;4976733;28;20058;-76
2023/06/15 04:08:32;;;;;;;15.35;8.25;;;;;;;;;;4976946;28;20037;-75
2023/06/15 04:11:00;;;;;;;13.65;8.85;;;;;;;;;;4976883;28;20092;-75
2023/06/15 04:13:27;;;;;;;14.23;9.27;;;;;;;;;;4976233;28;20027;-75
2023/06/15 04:15:56;;;;;;;13.52;9.48;;;;;;;;;;4995069;28;20084;-78
2023/06/15 04:18:24;;;;;;;14.07;8.98;;;;;;;;;;4976102;28;20022;-75
2023/06/15 04:20:51;;;;;;;16.40;10.05;;;;;;;;;;4959997;28;20038;-75
2023/06/15 04:23:17;;;;;;;13.00;9.30;;;;;;;;;;4993179;28;20041;-75
2023/06/15 04:25:43;;;;;;;12.90;10.20;;;;;;;;;;4975330;28;20112;-75
2023/06/15 04:28:10;;;;;;;12.40;9.95;;;;;;;;;;4993183;28;20038;-77
2023/06/15 04:30:44;;;;;;;13.88;9.45;;;;;;;;;;4975785;28;20036;-76
2023/06/15 04:33:13;;;;;;;16.65;9.88;;;;;;;;;;4976522;28;20026;-75
2023/06/15 04:35:46;;;;;;;16.17;10.35;;;;;;;;;;4993277;28;20801;-74
2023/06/15 04:38:13;;;;;;;19.27;10.07;;;;;;;;;;4994039;28;20033;-75
2023/06/15 04:40:42;;;;;;;16.58;10.75;;;;;;;;;;4976336;28;20034;-74
2023/06/15 04:43:08;;;;;;;17.17;9.85;;;;;;;;;;4976068;28;20026;-76
2023/06/15 04:45:37;;;;;;;14.43;10.32;;;;;;;;;;4975727;28;20031;-75
2023/06/15 04:48:03;;;;;;;15.13;9.73;;;;;;;;;;4976022;28;20131;-76
2023/06/15 04:50:32;;;;;;;15.02;9.32;;;;;;;;;;4992489;28;20469;-76
2023/06/15 04:52:58;;;;;;;17.00;11.02;;;;;;;;;;4994014;28;20085;-77
2023/06/15 04:55:27;;;;;;;15.80;10.23;;;;;;;;;;4993864;28;20037;-76
2023/06/15 04:57:56;;;;;;;15.75;10.48;;;;;;;;;;4993139;28;20034;-76
2023/06/15 05:00:22;;;;;;;15.60;10.98;;;;;;;;;;4976355;28;20041;-76
2023/06/15 05:02:48;;;;;;;17.90;11.07;;;;;;;;;;4975637;28;20494;-75
2023/06/15 05:05:13;;;;;;;20.90;10.93;;;;;;;;;;4975050;28;20053;-75
2023/06/15 05:07:39;;;;;;;18.50;10.00;;;;;;;;;;4975318;28;20160;-76
2023/06/15 05:10:07;;;;;;;14.32;10.13;;;;;;;;;;4975202;28;20373;-74
2023/06/15 05:12:36;;;;;;;15.38;11.35;;;;;;;;;;4975378;28;20046;-74
2023/06/15 05:15:06;;;;;;;14.32;11.40;;;;;;;;;;4993373;28;20031;-76
2023/06/15 05:17:32;;;;;;;15.35;10.13;;;;;;;;;;4974792;28;20434;-76
2023/06/15 05:19:58;;;;;;;17.88;10.93;;;;;;;;;;4982003;28;20064;-75
2023/06/15 05:22:24;;;;;;;14.52;11.10;;;;;;;;;;4993471;28;20033;-77
2023/06/15 05:24:50;;;;;;;18.08;10.90;;;;;;;;;;4976500;28;20037;-78
2023/06/15 05:27:15;;;;;;;19.60;10.20;;;;;;;;;;4997336;28;20061;-76
2023/06/15 05:29:41;;;;;;;15.88;10.10;;;;;;;;;;4994007;28;20038;-78
2023/06/15 05:32:09;;;;;;;25.83;11.15;;;;;;;;;;4999304;28;20049;-77
2023/06/15 05:34:35;;;;;;;21.20;11.45;;;;;;;;;;4997340;28;20104;-75
2023/06/15 05:37:01;;;;;;;17.83;13.45;;;;;;;;;;4997205;28;20128;-75
2023/06/15 05:39:26;;;;;;;17.27;9.88;;;;;;;;;;5007538;28;20058;-75
2023/06/15 05:41:53;;;;;;;14.40;10.32;;;;;;;;;;4994137;28;20033;-76
2023/06/15 05:44:23;;;;;;;15.75;10.40;;;;;;;;;;4991497;28;20455;-73
2023/06/15 05:47:01;;;;;;;15.02;9.77;;;;;;;;;;5001510;28;20064;-73
2023/06/15 05:49:33;;;;;;;16.35;10.68;;;;;;;;;;5012015;28;20187;-75
2023/06/15 05:51:59;;;;;;;16.80;11.20;;;;;;;;;;4995985;28;20048;-77
2023/06/15 05:54:29;;;;;;;15.18;9.93;;;;;;;;;;4999138;28;20407;-76
2023/06/15 05:56:56;;;;;;;16.33;11.38;;;;;;;;;;4985095;28;20021;-74
2023/06/15 05:59:25;;;;;;;15.38;10.73;;;;;;;;;;4995699;28;20040;-75
2023/06/15 06:01:51;;;;;;;14.10;10.07;;;;;;;;;;4997536;28;20062;-79
2023/06/15 06:04:23;;;;;;;16.90;10.63;;;;;;;;;;5016881;28;20026;-77
2023/06/15 06:06:49;;;;;;;14.55;10.77;;;;;;;;;;4976701;28;20474;-77
2023/06/15 06:09:18;;;;;;;17.88;10.32;;;;;;;;;;4998944;28;20379;-77
2023/06/15 06:11:47;;;;;;;15.25;10.25;;;;;;;;;;4995457;28;20061;-77
2023/06/15 06:14:15;;;;;;;18.52;11.02;;;;;;;;;;5010220;28;20030;-78
2023/06/15 06:16:42;;;;;;;28.83;11.38;;;;;;;;;;4978176;28;20042;-74
2023/06/15 06:19:16;;;;;;;18.27;12.10;;;;;;;;;;5016779;28;20030;-77
2023/06/15 06:21:48;;;;;;;16.73;11.32;;;;;;;;;;5002668;28;20101;-78
2023/06/15 06:24:19;;;;;;;17.00;10.63;;;;;;;;;;4982353;28;20037;-78
2023/06/15 06:26:53;;;;;;;;;;;;;;;;;;4997502;28;20429;-78
2023/06/15 06:29:45;;;;;;;17.58;10.65;;;;;;;;;;5007711;28;19913;-78
2023/06/15 06:32:14;;;;;;;15.13;10.60;;;;;;;;;;5009285;28;20029;-77
2023/06/15 06:35:20;;;;;;;;;;;;;;;;;;;;;
2023/06/15 06:38:07;;;;;;;13.43;8.77;;;;;;;;;;5010341;28;20077;-80
2023/06/15 06:41:03;;;;;;;10.15;7.78;;;;;;;;;;5012993;28;20029;-79
2023/06/15 06:43:49;;;;;;;12.27;8.07;;;;;;;;;;5007371;28;20072;-79
2023/06/15 06:46:49;;;;;;;11.02;7.72;;;;;;;;;;5020136;28;20033;-78
2023/06/15 06:49:16;;;;;;;10.53;6.03;;;;;;;;;;4980547;28;20030;-78
2023/06/15 06:51:50;;;;;;;9.07;5.57;;;;;;;;;;4997394;28;20029;-78
2023/06/15 06:54:20;;;;;;;9.98;5.65;;;;;;;;;;4988850;28;20033;-78
2023/06/15 06:56:57;;;;;;;9.23;6.25;;;;;;;;;;4999620;28;20030;-79
2023/06/15 06:59:39;;;;;;;7.93;6.53;;;;;;;;;;4996568;28;20034;-77
2023/06/15 07:02:17;;;;;;;9.52;6.95;;;;;;;;;;4991932;28;20113;-78
2023/06/15 07:04:50;;;;;;;12.07;6.45;;;;;;;;;;5022043;28;20069;-79
2023/06/15 07:07:22;;;;;;;8.23;6.72;;;;;;;;;;4999860;28;20125;-80
2023/06/15 07:09:50;;;;;;;12.23;6.93;;;;;;;;;;5000539;28;20029;-80
2023/06/15 07:12:36;;;;;;;12.02;7.18;;;;;;;;;;4994665;28;20038;-79
2023/06/15 07:15:06;;;;;;;11.55;6.20;;;;;;;;;;4992968;28;20026;-79
2023/06/15 07:17:42;;;;;;;10.88;5.18;;;;;;;;;;4989712;28;20045;-77
2023/06/15 07:20:27;;;;;;;10.65;5.50;;;;;;;;;;4988871;28;20104;-79
2023/06/15 07:22:53;;;;;;;24.23;6.25;;;;;;;;;;4995430;28;20057;-76
2023/06/15 07:25:24;;;;;;;12.82;5.80;;;;;;;;;;5009262;28;20030;-77
2023/06/15 07:27:52;;;;;;;12.07;6.63;;;;;;;;;;4994166;28;20501;-81
2023/06/15 07:30:19;;;;;;;9.75;6.28;;;;;;;;;;4976078;28;20065;-76
2023/06/15 07:32:45;;;;;;;12.13;6.57;;;;;;;;;;4988161;28;20501;-76
2023/06/15 07:35:13;;;;;;;11.90;6.25;;;;;;;;;;4997823;28;20034;-77
2023/06/15 07:37:45;;;;;;;11.27;7.57;;;;;;;;;;5015792;28;20030;-79
2023/06/15 07:40:13;;;;;;;14.15;5.93;;;;;;;;;;4993031;28;20510;-78
2023/06/15 07:42:40;;;;;;;10.45;6.63;;;;;;;;;;4998336;28;20486;-77
2023/06/15 07:45:11;;;;;;;17.50;7.00;;;;;;;;;;4986362;28;20064;-78
2023/06/15 07:47:39;;;;;;;14.02;7.05;;;;;;;;;;5002971;28;20030;-78
2023/06/15 07:50:12;;;;;;;9.48;6.03;;;;;;;;;;4995329;28;20122;-78
2023/06/15 07:52:45;;;;;;;12.38;6.93;;;;;;;;;;5000553;28;20033;-77
2023/06/15 07:55:11;;;;;;;11.07;6.72;;;;;;;;;;4994957;28;20446;-78
2023/06/15 07:57:38;;;;;;;8.95;6.03;;;;;;;;;;4998870;28;20026;-77
2023/06/15 08:00:11;;;;;;;9.95;6.18;;;;;;;;;;4999659;28;20036;-76
2023/06/15 08:02:48;;;;;;;8.77;5.95;;;;;;;;;;5006755;28;20042;-75
2023/06/15 08:05:20;;;;;;;8.55;6.43;;;;;;;;;;4993037;28;20045;-79
2023/06/15 08:07:50;;;;;;;9.77;6.32;;;;;;;;;;5010938;28;20049;-84
2023/06/15 08:10:18;;;;;;;11.02;7.25;;;;;;;;;;4986114;28;20178;-76
2023/06/15 08:12:46;;;;;;;10.15;6.47;;;;;;;;;;4991094;28;20084;-77
2023/06/15 08:15:16;;;;;;;9.82;6.57;;;;;;;;;;4992693;28;20026;-81
2023/06/15 08:17:46;;;;;;;11.80;7.70;;;;;;;;;;5010965;28;20038;-75
2023/06/15 08:20:17;;;;;;;11.73;6.65;;;;;;;;;;5002643;28;20030;-78
2023/06/15 08:22:47;;;;;;;16.15;6.35;;;;;;;;;;4970170;28;20124;-78
2023/06/15 08:25:15;;;;;;;12.43;6.63;;;;;;;;;;5015302;28;20033;-77
2023/06/15 08:27:49;;;;;;;9.07;6.38;;;;;;;;;;5011808;28;20529;-78
2023/06/15 08:30:15;;;;;;;14.05;5.78;;;;;;;;;;5012388;28;20061;-76
2023/06/15 08:32:44;;;;;;;7.78;5.32;;;;;;;;;;4997840;28;20021;-79
2023/06/15 08:35:23;;;;;;;9.02;6.10;;;;;;;;;;4997662;28;20121;-79
2023/06/15 08:37:52;;;;;;;6.82;5.40;;;;;;;;;;4993724;28;20050;-76
2023/06/15 08:40:23;;;;;;;8.82;5.25;;;;;;;;;;4987377;28;20036;-78
2023/06/15 08:42:52;;;;;;;;;;;;;;;;;;5015255;28;20064;-78
2023/06/15 08:45:19;;;;;;;8.93;5.63;;;;;;;;;;5021072;28;19951;-74
2023/06/15 08:47:52;;;;;;;11.20;6.63;;;;;;;;;;4973752;28;20117;-76
2023/06/15 08:50:21;;;;;;;9.10;5.38;;;;;;;;;;5021625;28;20030;-79
2023/06/15 08:52:54;;;;;;;12.38;6.50;;;;;;;;;;5018380;28;20042;-80
2023/06/15 08:55:32;;;;;;;9.85;5.32;;;;;;;;;;5027972;28;20047;-79
2023/06/15 08:58:05;;;;;;;11.65;5.38;;;;;;;;;;5019367;28;20038;-79
2023/06/15 09:00:43;;;;;;;9.38;5.97;;;;;;;;;;5022009;28;20080;-79
2023/06/15 09:03:11;;;;;;;10.27;5.40;;;;;;;;;;5026040;28;20548;-80
2023/06/15 09:05:45;;;;;;;8.10;5.68;;;;;;;;;;5004478;28;20038;-78
2023/06/15 09:08:13;;;;;;;12.60;5.15;;;;;;;;;;5002867;28;20129;-75
2023/06/15 09:10:41;;;;;;;7.30;4.93;;;;;;;;;;5001016;28;20053;-76
2023/06/15 09:13:18;;;;;;;6.97;5.47;;;;;;;;;;4990513;28;20033;-76
2023/06/15 09:16:00;;;;;;;6.60;4.85;;;;;;;;;;5002748;28;20041;-77
2023/06/15 09:18:28;;;;;;;9.32;5.10;;;;;;;;;;5002695;28;20038;-78
2023/06/15 09:21:04;;;;;;;9.52;5.60;;;;;;;;;;5022402;28;20037;-79
2023/06/15 09:23:36;;;;;;;8.35;5.63;;;;;;;;;;5000969;28;20033;-77
2023/06/15 09:26:07;;;;;;;14.85;8.88;;;;;;;;;;4993878;28;20077;-79
2023/06/15 09:28:45;;;;;;;7.70;5.25;;;;;;;;;;5005014;28;20057;-78
2023/06/15 09:31:38;;;;;;;12.55;6.20;;;;;;;;;;4989749;28;21198;-81
2023/06/15 09:34:06;;;;;;;13.52;7.40;;;;;;;;;;4987283;28;20034;-78
2023/06/15 09:37:06;;;;;;;11.57;5.65;;;;;;;;;;5016026;28;20014;-78
2023/06/15 09:39:33;;;;;;;11.48;6.00;;;;;;;;;;5009147;28;20474;-76
2023/06/15 09:42:08;;;;;;;11.73;6.22;;;;;;;;;;4995341;28;20032;-76
2023/06/15 09:44:38;;;;;;;10.25;5.35;;;;;;;;;;5010041;28;20066;-79
2023/06/15 09:47:17;;;;;;;8.13;4.75;;;;;;;;;;4992507;28;20101;-76
2023/06/15 09:49:54;;;;;;;11.40;5.28;;;;;;;;;;5012670;28;20486;-76
2023/06/15 09:52:23;;;;;;;8.65;5.93;;;;;;;;;;4995055;28;20196;-77
2023/06/15 09:54:50;;;;;;;7.10;4.70;;;;;;;;;;4983006;28;20064;-76
2023/06/15 09:57:18;;;;;;;7.55;4.00;;;;;;;;;;4990007;28;20045;-75
2023/06/15 09:59:51;;;;;;;7.57;4.50;;;;;;;;;;5014789;28;20069;-78
2023/06/15 10:02:20;;;;;;;10.32;4.25;;;;;;;;;;4997290;28;20061;-77
2023/06/15 10:04:51;;;;;;;6.90;3.72;;;;;;;;;;5015728;28;20030;-77
2023/06/15 10:07:20;;;;;;;16.52;6.68;;;;;;;;;;4977640;28;20561;-76
2023/06/15 10:09:48;;;;;;;13.23;6.05;;;;;;;;;;4996708;28;20556;-77
2023/06/15 10:12:22;;;;;;;152.98;39.03;;;;;;;;;;4996976;28;20050;-76
2023/06/15 10:15:33;;;;;;;6.25;4.07;;;;;;;;;;4996314;28;20032;-75
2023/06/15 10:18:02;;;;;;;19.58;7.38;;;;;;;;;;4903402;29;20032;-76
2023/06/15 10:20:31;;;;;;;7.68;4.38;;;;;;;;;;4904018;29;20063;-76
2023/06/15 10:23:19;;;;;;;41.00;12.68;;;;;;;;;;4957121;28;20914;-77
2023/06/15 10:25:49;;;;;;;50.75;13.50;;;;;;;;;;4966467;28;20565;-76
2023/06/15 10:28:23;;;;;;;8.70;4.50;;;;;;;;;;4989162;28;20063;-77
2023/06/15 10:31:05;;;;;;;6.78;4.10;;;;;;;;;;4987036;28;20128;-77
2023/06/15 10:33:52;;;;;;;4.90;3.63;;;;;;;;;;4987296;28;20034;-77
2023/06/15 10:36:30;;;;;;;7.55;3.67;;;;;;;;;;4983823;28;20185;-75
2023/06/15 10:39:27;;;;;;;11.65;4.88;;;;;;;;;;4988473;28;20046;-77
2023/06/15 10:42:08;;;;;;;7.78;4.40;;;;;;;;;;4988245;28;20494;-76
2023/06/15 10:44:54;;;;;;;5.72;4.22;;;;;;;;;;5013028;28;20129;-79
2023/06/15 10:47:33;;;;;;;6.50;4.45;;;;;;;;;;4995903;28;20034;-74
2023/06/15 10:50:14;;;;;;;5.55;4.00;;;;;;;;;;5010125;28;20046;-76
2023/06/15 10:52:40;;;;;;;;;;;;;;;;;;4993013;28;20085;-78
2023/06/15 10:55:14;;;;;;;10.68;4.97;;;;;;;;;;4996358;28;19914;-77
2023/06/15 10:57:44;;;;;;;9.90;5.25;;;;;;;;;;4991345;28;20117;-78
2023/06/15 11:00:23;;;;;;;5.70;4.13;;;;;;;;;;4999276;28;20037;-78
2023/06/15 11:02:59;;;;;;;9.35;4.72;;;;;;;;;;5002770;28;20037;-79
2023/06/15 11:05:47;;;;;;;12.27;5.30;;;;;;;;;;4993261;28;20065;-77
2023/06/15 11:08:38;;;;;;;7.20;5.30;;;;;;;;;;4998035;28;20066;-78
2023/06/15 11:11:03;;;;;;;8.13;5.05;;;;;;;;;;4998013;28;20041;-80
2023/06/15 11:13:32;;;;;;;13.85;5.88;;;;;;;;;;4995173;28;20034;-79
2023/06/15 11:19:35;;;;;;;10.07;5.20;;;;;;;;;;4987301;28;20057;-78
2023/06/15 11:22:28;;;;;;;7.53;4.80;;;;;;;;;;4997979;28;20030;-79
2023/06/15 11:25:14;;;;;;;6.45;4.63;;;;;;;;;;5000512;28;20034;-78
2023/06/15 11:27:53;;;;;;;9.32;4.95;;;;;;;;;;4978616;28;20437;-78
2023/06/15 11:30:29;;;;;;;12.23;5.30;;;;;;;;;;4993021;28;20030;-78
2023/06/15 11:33:00;;;;;;;9.00;5.40;;;;;;;;;;4996980;28;20034;-79
2023/06/15 11:35:29;;;;;;;10.75;5.30;;;;;;;;;;4998388;28;20023;-79
2023/06/15 11:38:03;;;;;;;11.48;5.78;;;;;;;;;;5003098;28;20105;-78
2023/06/15 11:40:33;;;;;;;13.73;6.68;;;;;;;;;;4976423;28;20043;-79
2023/06/15 11:43:11;;;;;;;10.60;5.53;;;;;;;;;;4994430;28;20069;-79
2023/06/15 11:45:44;;;;;;;10.02;5.47;;;;;;;;;;4989929;28;20033;-79
2023/06/15 11:48:14;;;;;;;11.25;5.90;;;;;;;;;;4996996;28;20030;-78
2023/06/15 11:50:50;;;;;;;6.68;5.47;;;;;;;;;;4999717;28;20043;-81
2023/06/15 11:53:17;;;;;;;8.50;5.07;;;;;;;;;;4992625;28;20049;-79
2023/06/15 11:55:46;;;;;;;9.25;5.38;;;;;;;;;;5003329;28;20038;-78
2023/06/15 11:58:22;;;;;;;12.18;5.13;;;;;;;;;;5001735;28;20033;-80
2023/06/15 12:00:52;;;;;;;15.35;6.00;;;;;;;;;;4999543;28;20026;-79
2023/06/15 12:03:20;;;;;;;9.30;5.20;;;;;;;;;;5000873;28;20138;-80
2023/06/15 12:06:00;;;;;;;7.15;5.32;;;;;;;;;;4998581;28;20030;-79
2023/06/15 12:09:13;;;;;;;7.72;4.95;;;;;;;;;;4995189;28;20054;-80
2023/06/15 12:11:38;;;;;;;8.45;4.63;;;;;;;;;;4998625;28;20039;-80
2023/06/15 12:19:20;;;;;;;9.05;4.00;;;;;;;;;;5044067;28;20057;-79
2023/06/15 12:22:19;;;;;;;7.72;4.10;;;;;;;;;;5050281;28;20131;-78
2023/06/15 12:24:48;;;;;;;10.00;4.60;;;;;;;;;;5042026;28;20128;-79
2023/06/15 12:27:22;;;;;;;7.05;4.22;;;;;;;;;;5003981;28;20080;-79
2023/06/15 12:29:55;;;;;;;5.38;3.88;;;;;;;;;;5012145;28;20036;-79
2023/06/15 12:32:26;;;;;;;14.77;4.43;;;;;;;;;;5012305;28;20018;-78
2023/06/15 12:35:42;;;;;;;7.47;4.05;;;;;;;;;;5023644;28;20040;-79
2023/06/15 12:38:22;;;;;;;7.60;3.40;;;;;;;;;;5007605;28;20080;-79
2023/06/15 12:40:56;;;;;;;6.85;3.78;;;;;;;;;;5001954;28;20030;-80
2023/06/15 12:43:37;;;;;;;5.65;3.75;;;;;;;;;;4990044;28;20097;-80
2023/06/15 12:46:04;;;;;;;5.70;3.97;;;;;;;;;;5028854;28;20397;-81
2023/06/15 12:48:39;;;;;;;13.10;3.70;;;;;;;;;;5011232;28;20029;-80
2023/06/15 12:51:09;;;;;;;7.78;4.20;;;;;;;;;;5027087;28;20034;-79
2023/06/15 12:53:38;;;;;;;8.25;3.88;;;;;;;;;;5027441;28;20037;-77
2023/06/15 12:56:06;;;;;;;8.10;3.65;;;;;;;;;;5024668;28;20026;-81
2023/06/15 12:58:36;;;;;;;10.75;4.00;;;;;;;;;;5011019;28;20651;-81
2023/06/15 13:01:05;;;;;;;7.28;3.45;;;;;;;;;;5004698;28;20034;-79
2023/06/15 13:03:34;;;;;;;6.55;3.45;;;;;;;;;;5008639;28;20044;-81
2023/06/15 13:06:03;;;;;;;8.43;3.40;;;;;;;;;;5024653;28;20045;-78
2023/06/15 13:08:32;;;;;;;17.35;7.53;;;;;;;;;;5005767;28;20022;-80
2023/06/15 13:10:59;;;;;;;9.48;3.63;;;;;;;;;;5024958;28;20044;-80
2023/06/15 13:13:26;;;;;;;11.32;3.97;;;;;;;;;;5009295;28;20076;-81
2023/06/15 13:16:14;;;;;;;4.93;3.63;;;;;;;;;;5024779;28;20540;-80
2023/06/15 13:18:40;;;;;;;5.32;3.30;;;;;;;;;;5025243;28;20045;-80
2023/06/15 13:21:06;;;;;;;7.40;3.38;;;;;;;;;;5006380;28;20033;-80
2023/06/15 13:23:38;;;;;;;6.30;3.10;;;;;;;;;;5008952;28;20099;-79
2023/06/15 13:26:13;;;;;;;6.65;3.28;;;;;;;;;;5020980;28;20572;-80
2023/06/15 13:28:44;;;;;;;9.38;3.65;;;;;;;;;;4974696;28;20105;-79
2023/06/15 13:31:13;;;;;;;4.45;3.30;;;;;;;;;;5010367;28;20160;-82
2023/06/15 13:33:43;;;;;;;6.75;3.63;;;;;;;;;;5026460;28;20029;-79
2023/06/15 13:36:15;;;;;;;4.65;3.08;;;;;;;;;;5024871;28;20434;-79
2023/06/15 13:38:42;;;;;;;7.60;2.90;;;;;;;;;;5026143;28;20772;-79
2023/06/15 13:41:21;;;;;;;7.57;3.45;;;;;;;;;;5006330;28;20028;-78
2023/06/15 13:43:47;;;;;;;5.60;3.55;;;;;;;;;;5026075;28;20017;-80
2023/06/15 13:46:30;;;;;;;4.53;3.30;;;;;;;;;;5026145;28;20032;-79
2023/06/15 13:48:56;;;;;;;8.77;3.58;;;;;;;;;;5013256;28;20029;-80
2023/06/15 13:51:29;;;;;;;7.95;3.75;;;;;;;;;;5028631;28;20036;-79
2023/06/15 13:53:55;;;;;;;4.47;3.28;;;;;;;;;;5004307;28;20030;-80
2023/06/15 13:56:21;;;;;;;7.60;2.95;;;;;;;;;;5011712;28;20026;-79
2023/06/15 13:58:51;;;;;;;4.68;3.22;;;;;;;;;;5012959;28;20044;-80
2023/06/15 14:01:24;;;;;;;6.37;3.50;;;;;;;;;;5029001;28;20030;-79
2023/06/15 14:03:58;;;;;;;8.75;3.35;;;;;;;;;;5012799;28;20117;-81
2023/06/15 14:06:27;;;;;;;4.05;3.47;;;;;;;;;;5012674;28;20544;-80
2023/06/15 14:08:53;;;;;;;6.50;3.58;;;;;;;;;;5011269;28;20097;-81
2023/06/15 14:11:19;;;;;;;11.23;3.58;;;;;;;;;;5029889;28;20045;-78
2023/06/15 14:13:54;;;;;;;5.97;3.40;;;;;;;;;;5029133;28;20022;-79
2023/06/15 14:16:23;;;;;;;5.65;3.60;;;;;;;;;;5010795;28;20030;-80
2023/06/15 14:18:54;;;;;;;8.90;4.00;;;;;;;;;;5009456;28;20046;-82
2023/06/15 14:21:20;;;;;;;3.70;3.40;;;;;;;;;;5010985;28;20055;-80
2023/06/15 14:23:49;;;;;;;10.95;3.95;;;;;;;;;;5029829;28;20033;-80
2023/06/15 14:26:33;;;;;;;8.65;4.10;;;;;;;;;;5027137;28;20033;-80
2023/06/15 14:29:00;;;;;;;6.18;3.35;;;;;;;;;;4978952;28;20289;-80
2023/06/15 14:31:26;;;;;;;5.53;3.45;;;;;;;;;;5025374;28;20091;-79
2023/06/15 14:33:58;;;;;;;8.88;5.18;;;;;;;;;;5011568;28;20037;-79
2023/06/15 14:36:24;;;;;;;11.95;3.92;;;;;;;;;;5010323;28;20404;-80
2023/06/15 14:38:53;;;;;;;11.75;9.85;;;;;;;;;;5010191;28;20432;-80
2023/06/15 14:41:20;;;;;;;12.43;7.63;;;;;;;;;;5028534;28;20030;-80
2023/06/15 14:43:52;;;;;;;8.55;5.82;;;;;;;;;;5021840;28;20473;-80
2023/06/15 14:46:18;;;;;;;9.77;4.25;;;;;;;;;;5030738;28;20136;-81
2023/06/15 14:48:44;;;;;;;8.65;7.20;;;;;;;;;;5032022;28;20052;-79
2023/06/15 14:51:24;;;;;;;6.60;4.63;;;;;;;;;;5049501;28;20032;-80
2023/06/15 14:53:56;;;;;;;4.78;3.25;;;;;;;;;;5031542;28;20083;-80
2023/06/15 14:56:25;;;;;;;7.68;3.55;;;;;;;;;;5031239;28;20025;-80
2023/06/15 14:59:03;;;;;;;7.85;5.38;;;;;;;;;;5030822;28;20078;-79
2023/06/15 15:01:36;;;;;;;6.32;3.10;;;;;;;;;;5048973;28;20017;-81
2023/06/15 15:04:02;;;;;;;5.20;3.58;;;;;;;;;;5030447;28;20065;-80
2023/06/15 15:06:29;;;;;;;7.75;3.88;;;;;;;;;;5028281;28;20025;-79
2023/06/15 15:08:58;;;;;;;7.78;3.60;;;;;;;;;;5028448;28;20039;-79